sensor_id;sensor_type;location;lat;lon;timestamp;P1;durP1;ratioP1;P2;durP2;ratioP2
3767;SDS011;1899;49.966;7.106;2022-10-17T04:02:34;6.25;;;3.72;;
3767;SDS011;1899;49.966;7.106;2022-10-17T04:05:00;31.63;;;5.67;;
3767;SDS011;1899;49.966;7.106;2022-10-17T04:07:25;8.88;;;3.95;;
3767;SDS011;1899;49.966;7.106;2022-10-17T04:09:51;8.97;;;3.50;;
3767;SDS011;1899;49.966;7.106;2022-10-17T04:12:16;5.00;;;2.70;;
3767;SDS011;1899;49.966;7.106;2022-10-17T04:14:41;5.70;;;2.77;;
3767;SDS011;1899;49.966;7.106;2022-10-17T04:17:07;4.07;;;2.97;;
3767;SDS011;1899;49.966;7.106;2022-10-17T04:19:32;3.30;;;3.00;;
3767;SDS011;1899;49.966;7.106;2022-10-17T04:21:57;3.40;;;2.70;;
3767;SDS011;1899;49.966;7.106;2022-10-17T04:24:22;6.60;;;3.17;;
3767;SDS011;1899;49.966;7.106;2022-10-17T04:26:49;10.00;;;3.70;;
3767;SDS011;1899;49.966;7.106;2022-10-17T04:29:15;9.85;;;3.45;;
3767;SDS011;1899;49.966;7.106;2022-10-17T04:31:40;7.50;;;3.20;;
3767;SDS011;1899;49.966;7.106;2022-10-17T04:34:05;9.38;;;3.70;;
3767;SDS011;1899;49.966;7.106;2022-10-17T04:36:30;5.00;;;2.40;;
3767;SDS011;1899;49.966;7.106;2022-10-17T04:38:56;4.60;;;2.60;;
3767;SDS011;1899;49.966;7.106;2022-10-17T04:41:21;9.47;;;3.47;;
3767;SDS011;1899;49.966;7.106;2022-10-17T04:43:46;3.57;;;3.20;;
3767;SDS011;1899;49.966;7.106;2022-10-17T04:46:12;5.80;;;2.90;;
3767;SDS011;1899;49.966;7.106;2022-10-17T04:48:38;8.02;;;3.08;;
3767;SDS011;1899;49.966;7.106;2022-10-17T04:51:13;8.17;;;3.80;;
3767;SDS011;1899;49.966;7.106;2022-10-17T04:53:39;9.10;;;3.80;;
3767;SDS011;1899;49.966;7.106;2022-10-17T04:56:09;4.72;;;3.25;;
3767;SDS011;1899;49.966;7.106;2022-10-17T04:58:34;7.25;;;3.72;;
3767;SDS011;1899;49.966;7.106;2022-10-17T05:01:03;6.63;;;3.47;;
3767;SDS011;1899;49.966;7.106;2022-10-17T05:03:28;5.90;;;3.22;;
3767;SDS011;1899;49.966;7.106;2022-10-17T05:05:53;4.68;;;3.60;;
3767;SDS011;1899;49.966;7.106;2022-10-17T05:08:19;10.90;;;4.17;;
3767;SDS011;1899;49.966;7.106;2022-10-17T05:10:44;12.10;;;4.23;;
3767;SDS011;1899;49.966;7.106;2022-10-17T05:13:12;13.82;;;4.60;;
3767;SDS011;1899;49.966;7.106;2022-10-17T05:15:38;12.60;;;3.92;;
3767;SDS011;1899;49.966;7.106;2022-10-17T05:18:03;6.17;;;3.77;;
3767;SDS011;1899;49.966;7.106;2022-10-17T05:20:29;4.63;;;3.43;;
3767;SDS011;1899;49.966;7.106;2022-10-17T05:22:54;8.05;;;3.38;;
3767;SDS011;1899;49.966;7.106;2022-10-17T05:25:19;5.30;;;3.40;;
3767;SDS011;1899;49.966;7.106;2022-10-17T05:27:45;4.50;;;3.00;;
3767;SDS011;1899;49.966;7.106;2022-10-17T05:30:10;3.80;;;3.20;;
3767;SDS011;1899;49.966;7.106;2022-10-17T05:32:35;6.00;;;3.90;;
3767;SDS011;1899;49.966;7.106;2022-10-17T05:35:01;9.20;;;5.30;;
3767;SDS011;1899;49.966;7.106;2022-10-17T05:37:28;7.03;;;4.60;;
3767;SDS011;1899;49.966;7.106;2022-10-17T05:39:53;5.35;;;3.95;;
3767;SDS011;1899;49.966;7.106;2022-10-17T05:42:19;25.73;;;6.87;;
3767;SDS011;1899;49.966;7.106;2022-10-17T05:44:44;14.18;;;5.40;;
3767;SDS011;1899;49.966;7.106;2022-10-17T05:47:09;10.80;;;5.17;;
3767;SDS011;1899;49.966;7.106;2022-10-17T05:49:35;6.77;;;4.40;;
3767;SDS011;1899;49.966;7.106;2022-10-17T05:52:00;7.17;;;6.47;;
3767;SDS011;1899;49.966;7.106;2022-10-17T05:54:25;6.53;;;4.00;;
3767;SDS011;1899;49.966;7.106;2022-10-17T05:56:51;7.43;;;4.37;;
3767;SDS011;1899;49.966;7.106;2022-10-17T05:59:17;9.37;;;4.70;;
3767;SDS011;1899;49.966;7.106;2022-10-17T06:01:42;6.53;;;4.43;;
3767;SDS011;1899;49.966;7.106;2022-10-17T06:04:07;10.40;;;5.00;;
3767;SDS011;1899;49.966;7.106;2022-10-17T06:06:34;8.43;;;4.70;;
3767;SDS011;1899;49.966;7.106;2022-10-17T06:08:59;10.95;;;4.82;;
3767;SDS011;1899;49.966;7.106;2022-10-17T06:11:25;10.35;;;4.80;;
3767;SDS011;1899;49.966;7.106;2022-10-17T06:13:50;6.70;;;4.30;;
3767;SDS011;1899;49.966;7.106;2022-10-17T06:16:15;8.47;;;4.60;;
3767;SDS011;1899;49.966;7.106;2022-10-17T06:18:40;13.30;;;4.80;;
3767;SDS011;1899;49.966;7.106;2022-10-17T06:21:07;7.37;;;4.57;;
3767;SDS011;1899;49.966;7.106;2022-10-17T06:23:33;23.83;;;5.90;;
3767;SDS011;1899;49.966;7.106;2022-10-17T06:25:58;14.10;;;4.50;;
3767;SDS011;1899;49.966;7.106;2022-10-17T06:28:24;9.47;;;4.07;;
3767;SDS011;1899;49.966;7.106;2022-10-17T06:30:49;6.50;;;4.17;;
3767;SDS011;1899;49.966;7.106;2022-10-17T06:33:15;7.97;;;4.10;;
3767;SDS011;1899;49.966;7.106;2022-10-17T06:35:40;25.67;;;4.53;;
3767;SDS011;1899;49.966;7.106;2022-10-17T06:38:06;5.13;;;4.10;;
3767;SDS011;1899;49.966;7.106;2022-10-17T06:40:31;10.90;;;3.60;;
3767;SDS011;1899;49.966;7.106;2022-10-17T06:42:56;6.57;;;3.50;;
3767;SDS011;1899;49.966;7.106;2022-10-17T06:45:22;5.53;;;3.20;;
3767;SDS011;1899;49.966;7.106;2022-10-17T06:47:47;4.70;;;3.60;;
3767;SDS011;1899;49.966;7.106;2022-10-17T06:50:13;8.55;;;4.00;;
3767;SDS011;1899;49.966;7.106;2022-10-17T06:52:38;10.00;;;4.60;;
3767;SDS011;1899;49.966;7.106;2022-10-17T06:55:03;11.80;;;4.50;;
3767;SDS011;1899;49.966;7.106;2022-10-17T06:57:29;10.80;;;4.10;;
3767;SDS011;1899;49.966;7.106;2022-10-17T06:59:54;6.33;;;4.27;;
3767;SDS011;1899;49.966;7.106;2022-10-17T07:02:21;3.72;;;3.42;;
3767;SDS011;1899;49.966;7.106;2022-10-17T07:04:48;10.18;;;4.13;;
3767;SDS011;1899;49.966;7.106;2022-10-17T07:07:13;4.10;;;3.67;;
3767;SDS011;1899;49.966;7.106;2022-10-17T07:09:38;5.90;;;3.60;;
3767;SDS011;1899;49.966;7.106;2022-10-17T07:12:04;6.20;;;4.40;;
3767;SDS011;1899;49.966;7.106;2022-10-17T07:14:32;12.85;;;4.13;;
3767;SDS011;1899;49.966;7.106;2022-10-17T07:16:57;4.30;;;3.20;;
3767;SDS011;1899;49.966;7.106;2022-10-17T07:19:23;3.70;;;3.10;;
3767;SDS011;1899;49.966;7.106;2022-10-17T07:21:48;3.80;;;3.40;;
3767;SDS011;1899;49.966;7.106;2022-10-17T07:24:14;3.87;;;3.57;;
3767;SDS011;1899;49.966;7.106;2022-10-17T07:26:39;4.33;;;3.80;;
3767;SDS011;1899;49.966;7.106;2022-10-17T07:29:04;3.60;;;3.30;;
3767;SDS011;1899;49.966;7.106;2022-10-17T07:31:31;4.05;;;3.60;;
3767;SDS011;1899;49.966;7.106;2022-10-17T07:33:58;3.80;;;3.40;;
3767;SDS011;1899;49.966;7.106;2022-10-17T07:36:23;4.18;;;3.42;;
3767;SDS011;1899;49.966;7.106;2022-10-17T07:38:48;3.70;;;3.40;;
3767;SDS011;1899;49.966;7.106;2022-10-17T07:41:13;14.40;;;4.50;;
3767;SDS011;1899;49.966;7.106;2022-10-17T07:43:39;4.60;;;4.00;;
3767;SDS011;1899;49.966;7.106;2022-10-17T07:46:06;5.00;;;3.70;;
3767;SDS011;1899;49.966;7.106;2022-10-17T07:48:32;5.07;;;3.90;;
3767;SDS011;1899;49.966;7.106;2022-10-17T07:51:00;4.30;;;3.90;;
3767;SDS011;1899;49.966;7.106;2022-10-17T07:53:25;6.70;;;3.70;;
3767;SDS011;1899;49.966;7.106;2022-10-17T07:55:51;4.40;;;4.00;;
3767;SDS011;1899;49.966;7.106;2022-10-17T07:58:16;8.00;;;3.60;;
3767;SDS011;1899;49.966;7.106;2022-10-17T08:00:41;5.90;;;3.60;;
3767;SDS011;1899;49.966;7.106;2022-10-17T08:03:06;5.00;;;3.67;;
3767;SDS011;1899;49.966;7.106;2022-10-17T08:05:33;3.97;;;3.50;;
3767;SDS011;1899;49.966;7.106;2022-10-17T08:07:58;6.75;;;3.75;;
3767;SDS011;1899;49.966;7.106;2022-10-17T08:10:23;10.23;;;4.30;;
3767;SDS011;1899;49.966;7.106;2022-10-17T08:12:53;5.90;;;3.37;;
3767;SDS011;1899;49.966;7.106;2022-10-17T08:15:18;4.37;;;3.97;;
3767;SDS011;1899;49.966;7.106;2022-10-17T08:17:44;4.00;;;3.60;;
3767;SDS011;1899;49.966;7.106;2022-10-17T08:20:10;9.75;;;3.80;;
3767;SDS011;1899;49.966;7.106;2022-10-17T08:22:35;28.17;;;5.47;;
3767;SDS011;1899;49.966;7.106;2022-10-17T08:25:00;3.63;;;3.33;;
3767;SDS011;1899;49.966;7.106;2022-10-17T08:27:25;3.50;;;3.17;;
3767;SDS011;1899;49.966;7.106;2022-10-17T08:29:53;4.28;;;2.92;;
3767;SDS011;1899;49.966;7.106;2022-10-17T08:32:22;4.00;;;2.60;;
3767;SDS011;1899;49.966;7.106;2022-10-17T08:34:48;3.50;;;3.20;;
3767;SDS011;1899;49.966;7.106;2022-10-17T08:37:14;3.00;;;2.80;;
3767;SDS011;1899;49.966;7.106;2022-10-17T08:39:40;3.70;;;3.40;;
3767;SDS011;1899;49.966;7.106;2022-10-17T08:47:41;3.83;;;3.30;;
3767;SDS011;1899;49.966;7.106;2022-10-17T08:50:01;4.30;;;3.90;;
3767;SDS011;1899;49.966;7.106;2022-10-17T08:54:52;4.10;;;3.80;;
3767;SDS011;1899;49.966;7.106;2022-10-17T08:57:17;6.47;;;4.60;;
3767;SDS011;1899;49.966;7.106;2022-10-17T08:59:42;4.00;;;3.60;;
3767;SDS011;1899;49.966;7.106;2022-10-17T09:07:08;4.20;;;2.92;;
3767;SDS011;1899;49.966;7.106;2022-10-17T09:12:04;9.63;;;4.50;;
3767;SDS011;1899;49.966;7.106;2022-10-17T09:20:16;8.70;;;5.55;;
3767;SDS011;1899;49.966;7.106;2022-10-17T09:22:45;5.03;;;4.45;;
3767;SDS011;1899;49.966;7.106;2022-10-17T09:25:12;6.22;;;4.13;;
3767;SDS011;1899;49.966;7.106;2022-10-17T09:27:46;6.80;;;5.30;;
3767;SDS011;1899;49.966;7.106;2022-10-17T09:32:57;7.60;;;5.60;;
3767;SDS011;1899;49.966;7.106;2022-10-17T09:35:22;8.65;;;7.18;;
3767;SDS011;1899;49.966;7.106;2022-10-17T09:37:48;6.27;;;5.23;;
3767;SDS011;1899;49.966;7.106;2022-10-17T09:40:34;10.40;;;6.10;;
3767;SDS011;1899;49.966;7.106;2022-10-17T09:43:00;12.05;;;7.95;;
3767;SDS011;1899;49.966;7.106;2022-10-17T09:45:27;7.35;;;6.60;;
3767;SDS011;1899;49.966;7.106;2022-10-17T09:48:05;8.80;;;7.15;;
3767;SDS011;1899;49.966;7.106;2022-10-17T09:50:34;14.32;;;7.20;;
3767;SDS011;1899;49.966;7.106;2022-10-17T09:53:01;12.60;;;7.37;;
3767;SDS011;1899;49.966;7.106;2022-10-17T09:55:43;9.52;;;6.72;;
3767;SDS011;1899;49.966;7.106;2022-10-17T09:58:09;7.10;;;6.10;;
3767;SDS011;1899;49.966;7.106;2022-10-17T10:00:44;6.95;;;6.15;;
3767;SDS011;1899;49.966;7.106;2022-10-17T10:05:39;10.57;;;6.45;;
3767;SDS011;1899;49.966;7.106;2022-10-17T10:08:14;6.40;;;5.10;;
3767;SDS011;1899;49.966;7.106;2022-10-17T10:10:40;7.68;;;6.40;;
3767;SDS011;1899;49.966;7.106;2022-10-17T10:15:39;6.50;;;5.53;;
3767;SDS011;1899;49.966;7.106;2022-10-17T10:18:38;25.60;;;7.30;;
3767;SDS011;1899;49.966;7.106;2022-10-17T10:23:35;6.28;;;5.65;;
3767;SDS011;1899;49.966;7.106;2022-10-17T10:28:47;7.30;;;5.43;;
3767;SDS011;1899;49.966;7.106;2022-10-17T10:31:14;6.43;;;4.93;;
3767;SDS011;1899;49.966;7.106;2022-10-17T10:33:40;6.70;;;4.47;;
3767;SDS011;1899;49.966;7.106;2022-10-17T10:36:06;5.97;;;4.50;;
3767;SDS011;1899;49.966;7.106;2022-10-17T10:38:32;9.85;;;4.65;;
3767;SDS011;1899;49.966;7.106;2022-10-17T10:41:15;4.82;;;4.43;;
3767;SDS011;1899;49.966;7.106;2022-10-17T10:43:42;7.88;;;4.55;;
3767;SDS011;1899;49.966;7.106;2022-10-17T10:46:24;11.60;;;4.57;;
3767;SDS011;1899;49.966;7.106;2022-10-17T10:48:55;7.17;;;5.40;;
3767;SDS011;1899;49.966;7.106;2022-10-17T10:53:55;7.05;;;4.90;;
3767;SDS011;1899;49.966;7.106;2022-10-17T10:56:34;9.73;;;5.10;;
3767;SDS011;1899;49.966;7.106;2022-10-17T10:59:07;7.88;;;4.25;;
3767;SDS011;1899;49.966;7.106;2022-10-17T11:01:38;6.15;;;4.40;;
3767;SDS011;1899;49.966;7.106;2022-10-17T11:04:11;6.18;;;4.22;;
3767;SDS011;1899;49.966;7.106;2022-10-17T11:06:39;10.52;;;4.90;;
3767;SDS011;1899;49.966;7.106;2022-10-17T11:12:04;9.32;;;4.43;;
3767;SDS011;1899;49.966;7.106;2022-10-17T11:14:40;5.28;;;4.13;;
3767;SDS011;1899;49.966;7.106;2022-10-17T11:17:12;5.45;;;3.70;;
3767;SDS011;1899;49.966;7.106;2022-10-17T11:22:14;5.18;;;3.47;;
3767;SDS011;1899;49.966;7.106;2022-10-17T11:27:06;5.20;;;3.60;;
3767;SDS011;1899;49.966;7.106;2022-10-17T11:29:33;8.10;;;4.00;;
3767;SDS011;1899;49.966;7.106;2022-10-17T11:32:07;6.95;;;4.10;;
3767;SDS011;1899;49.966;7.106;2022-10-17T11:34:39;6.80;;;4.20;;
3767;SDS011;1899;49.966;7.106;2022-10-17T11:37:13;6.07;;;3.80;;
3767;SDS011;1899;49.966;7.106;2022-10-17T11:44:49;6.45;;;3.90;;
3767;SDS011;1899;49.966;7.106;2022-10-17T11:49:45;5.10;;;3.30;;
3767;SDS011;1899;49.966;7.106;2022-10-17T11:54:57;7.50;;;3.90;;
3767;SDS011;1899;49.966;7.106;2022-10-17T12:02:46;8.77;;;4.50;;
3767;SDS011;1899;49.966;7.106;2022-10-17T12:05:25;8.30;;;3.33;;
3767;SDS011;1899;49.966;7.106;2022-10-17T12:08:04;6.80;;;3.08;;
3767;SDS011;1899;49.966;7.106;2022-10-17T12:10:41;4.90;;;3.10;;
3767;SDS011;1899;49.966;7.106;2022-10-17T12:15:52;5.70;;;3.10;;
3767;SDS011;1899;49.966;7.106;2022-10-17T12:18:18;6.57;;;3.30;;
3767;SDS011;1899;49.966;7.106;2022-10-17T12:20:45;5.87;;;3.00;;
3767;SDS011;1899;49.966;7.106;2022-10-17T12:23:21;9.95;;;4.05;;
3767;SDS011;1899;49.966;7.106;2022-10-17T12:25:57;13.32;;;3.80;;
3767;SDS011;1899;49.966;7.106;2022-10-17T12:31:38;6.93;;;3.00;;
3767;SDS011;1899;49.966;7.106;2022-10-17T12:38:41;8.90;;;3.50;;
3767;SDS011;1899;49.966;7.106;2022-10-17T12:41:06;4.73;;;2.67;;
3767;SDS011;1899;49.966;7.106;2022-10-17T12:43:34;3.63;;;2.30;;
3767;SDS011;1899;49.966;7.106;2022-10-17T12:46:00;19.58;;;3.97;;
3767;SDS011;1899;49.966;7.106;2022-10-17T12:53:25;5.47;;;2.90;;
3767;SDS011;1899;49.966;7.106;2022-10-17T12:55:58;5.78;;;3.20;;
3767;SDS011;1899;49.966;7.106;2022-10-17T12:58:23;4.82;;;2.53;;
3767;SDS011;1899;49.966;7.106;2022-10-17T13:00:52;9.40;;;3.23;;
3767;SDS011;1899;49.966;7.106;2022-10-17T13:03:19;7.55;;;3.00;;
3767;SDS011;1899;49.966;7.106;2022-10-17T13:05:49;4.60;;;2.60;;
3767;SDS011;1899;49.966;7.106;2022-10-17T13:08:21;5.95;;;2.80;;
3767;SDS011;1899;49.966;7.106;2022-10-17T13:10:48;6.18;;;2.78;;
3767;SDS011;1899;49.966;7.106;2022-10-17T13:15:53;3.40;;;2.70;;
3767;SDS011;1899;49.966;7.106;2022-10-17T13:18:23;19.27;;;3.70;;
3767;SDS011;1899;49.966;7.106;2022-10-17T13:23:23;8.98;;;3.30;;
3767;SDS011;1899;49.966;7.106;2022-10-17T13:26:02;4.32;;;2.63;;
3767;SDS011;1899;49.966;7.106;2022-10-17T13:28:27;7.90;;;3.35;;
3767;SDS011;1899;49.966;7.106;2022-10-17T13:30:53;14.77;;;4.00;;
3767;SDS011;1899;49.966;7.106;2022-10-17T13:33:35;6.57;;;3.10;;
3767;SDS011;1899;49.966;7.106;2022-10-17T13:36:02;15.77;;;3.50;;
3767;SDS011;1899;49.966;7.106;2022-10-17T13:38:31;12.13;;;3.67;;
3767;SDS011;1899;49.966;7.106;2022-10-17T13:40:56;6.57;;;3.00;;
3767;SDS011;1899;49.966;7.106;2022-10-17T13:43:22;18.83;;;4.37;;
3767;SDS011;1899;49.966;7.106;2022-10-17T13:45:55;9.82;;;3.13;;
3767;SDS011;1899;49.966;7.106;2022-10-17T13:48:22;17.10;;;3.87;;
3767;SDS011;1899;49.966;7.106;2022-10-17T13:50:49;14.23;;;4.10;;
3767;SDS011;1899;49.966;7.106;2022-10-17T13:55:56;7.35;;;3.00;;
3767;SDS011;1899;49.966;7.106;2022-10-17T13:58:21;4.78;;;2.50;;
3767;SDS011;1899;49.966;7.106;2022-10-17T14:00:47;11.70;;;3.70;;
3767;SDS011;1899;49.966;7.106;2022-10-17T14:03:14;7.40;;;3.45;;
3767;SDS011;1899;49.966;7.106;2022-10-17T14:08:24;9.00;;;3.25;;
3767;SDS011;1899;49.966;7.106;2022-10-17T14:10:49;4.30;;;2.70;;
3767;SDS011;1899;49.966;7.106;2022-10-17T14:13:33;9.33;;;3.10;;
3767;SDS011;1899;49.966;7.106;2022-10-17T14:16:00;8.65;;;3.10;;
3767;SDS011;1899;49.966;7.106;2022-10-17T14:18:27;8.40;;;3.58;;
3767;SDS011;1899;49.966;7.106;2022-10-17T14:20:52;6.97;;;3.30;;
3767;SDS011;1899;49.966;7.106;2022-10-17T14:26:02;10.63;;;3.78;;
3767;SDS011;1899;49.966;7.106;2022-10-17T14:28:28;15.32;;;3.53;;
3767;SDS011;1899;49.966;7.106;2022-10-17T14:30:53;6.68;;;3.42;;
3767;SDS011;1899;49.966;7.106;2022-10-17T14:33:32;8.13;;;3.45;;
3767;SDS011;1899;49.966;7.106;2022-10-17T14:35:59;8.15;;;3.53;;
3767;SDS011;1899;49.966;7.106;2022-10-17T14:38:25;6.53;;;3.30;;
3767;SDS011;1899;49.966;7.106;2022-10-17T14:40:52;8.90;;;3.50;;
3767;SDS011;1899;49.966;7.106;2022-10-17T14:43:21;22.58;;;4.20;;
3767;SDS011;1899;49.966;7.106;2022-10-17T14:45:47;6.90;;;3.92;;
3767;SDS011;1899;49.966;7.106;2022-10-17T14:48:14;13.03;;;4.30;;
3767;SDS011;1899;49.966;7.106;2022-10-17T14:50:40;11.80;;;3.30;;
3767;SDS011;1899;49.966;7.106;2022-10-17T14:55:35;7.35;;;3.40;;
3767;SDS011;1899;49.966;7.106;2022-10-17T14:58:13;9.23;;;3.83;;
3767;SDS011;1899;49.966;7.106;2022-10-17T15:00:39;19.98;;;4.43;;
3767;SDS011;1899;49.966;7.106;2022-10-17T15:03:04;12.77;;;3.80;;
3767;SDS011;1899;49.966;7.106;2022-10-17T15:05:29;4.70;;;3.27;;
3767;SDS011;1899;49.966;7.106;2022-10-17T15:07:54;10.80;;;3.80;;
3767;SDS011;1899;49.966;7.106;2022-10-17T15:12:58;11.88;;;3.63;;
3767;SDS011;1899;49.966;7.106;2022-10-17T15:15:24;8.02;;;3.92;;
3767;SDS011;1899;49.966;7.106;2022-10-17T15:17:49;7.23;;;3.13;;
3767;SDS011;1899;49.966;7.106;2022-10-17T15:20:15;16.00;;;4.20;;
3767;SDS011;1899;49.966;7.106;2022-10-17T15:22:41;14.05;;;3.90;;
3767;SDS011;1899;49.966;7.106;2022-10-17T15:25:06;12.97;;;3.90;;
3767;SDS011;1899;49.966;7.106;2022-10-17T15:27:32;22.98;;;5.05;;
3767;SDS011;1899;49.966;7.106;2022-10-17T15:29:57;9.67;;;5.30;;
3767;SDS011;1899;49.966;7.106;2022-10-17T15:32:22;24.40;;;5.50;;
3767;SDS011;1899;49.966;7.106;2022-10-17T15:34:47;37.27;;;6.67;;
3767;SDS011;1899;49.966;7.106;2022-10-17T15:37:17;11.63;;;5.00;;
3767;SDS011;1899;49.966;7.106;2022-10-17T15:39:46;28.00;;;6.03;;
3767;SDS011;1899;49.966;7.106;2022-10-17T15:42:16;13.60;;;5.03;;
3767;SDS011;1899;49.966;7.106;2022-10-17T15:44:42;13.87;;;5.17;;
3767;SDS011;1899;49.966;7.106;2022-10-17T15:47:10;16.45;;;5.50;;
3767;SDS011;1899;49.966;7.106;2022-10-17T15:49:40;12.20;;;6.30;;
3767;SDS011;1899;49.966;7.106;2022-10-17T15:52:07;11.57;;;5.40;;
3767;SDS011;1899;49.966;7.106;2022-10-17T15:54:32;14.93;;;6.00;;
3767;SDS011;1899;49.966;7.106;2022-10-17T15:56:57;13.53;;;6.00;;
3767;SDS011;1899;49.966;7.106;2022-10-17T15:59:25;17.07;;;6.30;;
3767;SDS011;1899;49.966;7.106;2022-10-17T16:01:52;33.38;;;7.18;;
3767;SDS011;1899;49.966;7.106;2022-10-17T16:04:17;17.03;;;5.60;;
3767;SDS011;1899;49.966;7.106;2022-10-17T16:06:43;16.73;;;6.95;;
3767;SDS011;1899;49.966;7.106;2022-10-17T16:11:41;21.02;;;6.68;;
3767;SDS011;1899;49.966;7.106;2022-10-17T16:14:11;10.40;;;5.55;;
3767;SDS011;1899;49.966;7.106;2022-10-17T16:16:37;14.52;;;6.03;;
3767;SDS011;1899;49.966;7.106;2022-10-17T16:19:02;17.30;;;6.30;;
3767;SDS011;1899;49.966;7.106;2022-10-17T16:21:28;11.40;;;5.18;;
3767;SDS011;1899;49.966;7.106;2022-10-17T16:23:54;18.65;;;12.00;;
3767;SDS011;1899;49.966;7.106;2022-10-17T16:26:20;39.70;;;12.30;;
3767;SDS011;1899;49.966;7.106;2022-10-17T16:28:45;44.50;;;10.82;;
3767;SDS011;1899;49.966;7.106;2022-10-17T16:31:14;23.70;;;8.80;;
3767;SDS011;1899;49.966;7.106;2022-10-17T16:33:41;9.30;;;5.70;;
3767;SDS011;1899;49.966;7.106;2022-10-17T16:36:06;11.50;;;6.00;;
3767;SDS011;1899;49.966;7.106;2022-10-17T16:38:32;10.40;;;5.70;;
3767;SDS011;1899;49.966;7.106;2022-10-17T16:40:57;33.40;;;7.50;;
3767;SDS011;1899;49.966;7.106;2022-10-17T16:43:22;27.73;;;6.90;;
3767;SDS011;1899;49.966;7.106;2022-10-17T16:45:47;22.70;;;6.03;;
3767;SDS011;1899;49.966;7.106;2022-10-17T16:48:12;10.90;;;6.50;;
3767;SDS011;1899;49.966;7.106;2022-10-17T16:50:38;10.50;;;5.70;;
3767;SDS011;1899;49.966;7.106;2022-10-17T16:53:03;13.60;;;5.80;;
3767;SDS011;1899;49.966;7.106;2022-10-17T16:55:29;9.53;;;6.33;;
3767;SDS011;1899;49.966;7.106;2022-10-17T16:57:54;23.97;;;7.23;;
3767;SDS011;1899;49.966;7.106;2022-10-17T17:00:19;12.33;;;5.80;;
3767;SDS011;1899;49.966;7.106;2022-10-17T17:02:48;20.70;;;6.50;;
3767;SDS011;1899;49.966;7.106;2022-10-17T17:05:13;12.73;;;6.50;;
3767;SDS011;1899;49.966;7.106;2022-10-17T17:07:39;29.50;;;7.70;;
3767;SDS011;1899;49.966;7.106;2022-10-17T17:10:04;17.43;;;6.47;;
3767;SDS011;1899;49.966;7.106;2022-10-17T17:12:31;14.73;;;6.67;;
3767;SDS011;1899;49.966;7.106;2022-10-17T17:14:56;8.27;;;5.70;;
3767;SDS011;1899;49.966;7.106;2022-10-17T17:17:21;16.65;;;6.95;;
3767;SDS011;1899;49.966;7.106;2022-10-17T17:19:47;13.20;;;6.00;;
3767;SDS011;1899;49.966;7.106;2022-10-17T17:22:12;21.63;;;9.30;;
3767;SDS011;1899;49.966;7.106;2022-10-17T17:24:37;27.87;;;9.43;;
3767;SDS011;1899;49.966;7.106;2022-10-17T17:27:02;36.00;;;8.73;;
3767;SDS011;1899;49.966;7.106;2022-10-17T17:29:28;6.90;;;5.90;;
3767;SDS011;1899;49.966;7.106;2022-10-17T17:31:53;29.00;;;8.47;;
3767;SDS011;1899;49.966;7.106;2022-10-17T17:34:18;11.37;;;6.80;;
3767;SDS011;1899;49.966;7.106;2022-10-17T17:36:44;13.67;;;7.60;;
3767;SDS011;1899;49.966;7.106;2022-10-17T17:39:10;16.55;;;7.90;;
3767;SDS011;1899;49.966;7.106;2022-10-17T17:41:35;16.27;;;7.32;;
3767;SDS011;1899;49.966;7.106;2022-10-17T17:44:01;16.48;;;7.68;;
3767;SDS011;1899;49.966;7.106;2022-10-17T17:46:27;14.13;;;7.97;;
3767;SDS011;1899;49.966;7.106;2022-10-17T17:48:53;28.43;;;8.60;;
3767;SDS011;1899;49.966;7.106;2022-10-17T17:51:20;17.52;;;8.00;;
3767;SDS011;1899;49.966;7.106;2022-10-17T17:53:45;15.97;;;7.47;;
3767;SDS011;1899;49.966;7.106;2022-10-17T17:56:15;16.80;;;7.93;;
3767;SDS011;1899;49.966;7.106;2022-10-17T17:58:41;22.83;;;8.02;;
3767;SDS011;1899;49.966;7.106;2022-10-17T18:01:10;17.00;;;8.10;;
3767;SDS011;1899;49.966;7.106;2022-10-17T18:03:37;20.50;;;8.85;;
3767;SDS011;1899;49.966;7.106;2022-10-17T18:06:04;19.83;;;8.70;;
3767;SDS011;1899;49.966;7.106;2022-10-17T18:08:29;15.55;;;8.95;;
3767;SDS011;1899;49.966;7.106;2022-10-17T18:10:54;15.60;;;8.87;;
3767;SDS011;1899;49.966;7.106;2022-10-17T18:13:22;19.85;;;8.30;;
3767;SDS011;1899;49.966;7.106;2022-10-17T18:15:47;13.53;;;7.50;;
3767;SDS011;1899;49.966;7.106;2022-10-17T18:18:15;25.00;;;10.60;;
3767;SDS011;1899;49.966;7.106;2022-10-17T18:20:41;19.40;;;8.60;;
3767;SDS011;1899;49.966;7.106;2022-10-17T18:23:07;18.73;;;9.18;;
3767;SDS011;1899;49.966;7.106;2022-10-17T18:25:32;19.20;;;8.63;;
3767;SDS011;1899;49.966;7.106;2022-10-17T18:27:57;19.77;;;8.60;;
3767;SDS011;1899;49.966;7.106;2022-10-17T18:30:22;29.50;;;9.77;;
3767;SDS011;1899;49.966;7.106;2022-10-17T18:32:48;21.67;;;8.87;;
3767;SDS011;1899;49.966;7.106;2022-10-17T18:35:13;18.17;;;8.10;;
3767;SDS011;1899;49.966;7.106;2022-10-17T18:37:38;12.60;;;7.60;;
3767;SDS011;1899;49.966;7.106;2022-10-17T18:40:04;14.50;;;8.00;;
3767;SDS011;1899;49.966;7.106;2022-10-17T18:42:29;14.77;;;7.67;;
3767;SDS011;1899;49.966;7.106;2022-10-17T18:44:54;15.57;;;8.23;;
3767;SDS011;1899;49.966;7.106;2022-10-17T18:47:20;26.50;;;8.83;;
3767;SDS011;1899;49.966;7.106;2022-10-17T18:49:45;21.70;;;9.20;;
3767;SDS011;1899;49.966;7.106;2022-10-17T18:52:12;21.63;;;8.70;;
3767;SDS011;1899;49.966;7.106;2022-10-17T18:54:37;15.00;;;8.93;;
3767;SDS011;1899;49.966;7.106;2022-10-17T18:57:02;15.87;;;8.80;;
3767;SDS011;1899;49.966;7.106;2022-10-17T18:59:28;17.60;;;9.30;;
3767;SDS011;1899;49.966;7.106;2022-10-17T19:01:53;13.73;;;8.57;;
3767;SDS011;1899;49.966;7.106;2022-10-17T19:04:18;22.67;;;9.00;;
3767;SDS011;1899;49.966;7.106;2022-10-17T19:06:43;24.27;;;8.33;;
3767;SDS011;1899;49.966;7.106;2022-10-17T19:09:12;11.98;;;8.30;;
3767;SDS011;1899;49.966;7.106;2022-10-17T19:11:38;16.47;;;8.60;;
3767;SDS011;1899;49.966;7.106;2022-10-17T19:14:05;19.80;;;8.50;;
3767;SDS011;1899;49.966;7.106;2022-10-17T19:16:36;14.18;;;8.30;;
3767;SDS011;1899;49.966;7.106;2022-10-17T19:19:05;11.70;;;8.27;;
3767;SDS011;1899;49.966;7.106;2022-10-17T19:21:31;16.40;;;8.50;;
3767;SDS011;1899;49.966;7.106;2022-10-17T19:23:58;14.00;;;8.40;;
3767;SDS011;1899;49.966;7.106;2022-10-17T19:26:24;19.45;;;9.20;;
3767;SDS011;1899;49.966;7.106;2022-10-17T19:28:50;19.00;;;9.30;;
3767;SDS011;1899;49.966;7.106;2022-10-17T19:31:19;20.33;;;9.07;;
3767;SDS011;1899;49.966;7.106;2022-10-17T19:33:45;14.80;;;8.07;;
3767;SDS011;1899;49.966;7.106;2022-10-17T19:36:11;13.30;;;8.20;;
3767;SDS011;1899;49.966;7.106;2022-10-17T19:38:37;13.80;;;8.18;;
3767;SDS011;1899;49.966;7.106;2022-10-17T19:41:06;11.90;;;7.70;;
3767;SDS011;1899;49.966;7.106;2022-10-17T19:43:31;19.00;;;9.10;;
3767;SDS011;1899;49.966;7.106;2022-10-17T19:45:58;20.33;;;10.10;;
3767;SDS011;1899;49.966;7.106;2022-10-17T19:48:24;14.50;;;9.50;;
3767;SDS011;1899;49.966;7.106;2022-10-17T19:50:49;13.80;;;9.27;;
3767;SDS011;1899;49.966;7.106;2022-10-17T19:53:15;20.17;;;9.67;;
3767;SDS011;1899;49.966;7.106;2022-10-17T19:55:40;14.50;;;9.07;;
3767;SDS011;1899;49.966;7.106;2022-10-17T19:58:06;9.00;;;7.30;;
